Time;durP1;ratioP1;P1;durP2;ratioP2;P2;SDS_P1;SDS_P2;PMS_P1;PMS_P2;Temp;Humidity;BMP_temperature;BMP_pressure;BME280_temperature;BME280_humidity;BME280_pressure;Samples;Min_cycle;Max_cycle;Signal;HPM_P1;HPM_P2
2022/11/10 00:01:32;;;;;;;33.70;14.90;;;;;;;6.40;100.00;99514.48;100535;1341;23232;-33
2022/11/10 00:03:57;;;;;;;30.60;15.60;;;;;;;6.41;100.00;99520.42;100570;1346;24487;-35
2022/11/10 00:06:23;;;;;;;44.40;19.40;;;;;;;6.42;100.00;99523.33;100569;1340;24363;-31
2022/11/10 00:08:49;;;;;;;39.10;19.80;;;;;;;6.41;100.00;99520.42;100558;1340;24368;-35
2022/11/10 00:11:14;;;;;;;43.70;17.30;;;;;;;6.36;100.00;99523.25;100605;1332;22490;-34
2022/11/10 00:18:55;;;;;;;26.50;13.00;;;;;;;6.37;100.00;99530.06;100532;1341;24357;-36
2022/11/10 00:21:20;;;;;;;48.90;17.90;;;;;;;6.39;100.00;99533.63;100553;1340;22497;-36
2022/11/10 00:23:46;;;;;;;40.90;17.80;;;;;;;6.39;100.00;99541.42;100547;1340;22901;-32
2022/11/10 00:26:14;;;;;;;53.10;18.70;;;;;;;6.38;100.00;99543.92;100560;1334;24497;-33
2022/11/10 00:28:40;;;;;;;37.90;15.50;;;;;;;6.38;100.00;99542.09;100548;1341;23325;-32
2022/11/10 00:31:06;;;;;;;39.70;15.10;;;;;;;6.37;100.00;99541.36;100562;1342;24450;-32
2022/11/10 00:33:34;;;;;;;34.30;14.80;;;;;;;6.39;100.00;99546.13;100562;1339;23106;-35
2022/11/10 00:36:00;;;;;;;33.20;17.20;;;;;;;6.40;100.00;99545.40;100644;1340;24710;-37
2022/11/10 00:38:27;;;;;;;16.70;8.70;;;;;;;6.38;100.00;99546.16;100631;1341;25432;-37
2022/11/10 00:40:53;;;;;;;41.90;17.20;;;;;;;6.30;100.00;99542.19;100611;1341;23126;-33
2022/11/10 00:43:18;;;;;;;33.80;13.90;;;;;;;6.28;100.00;99544.42;100587;1324;23258;-36
2022/11/10 00:45:45;;;;;;;42.50;13.30;;;;;;;6.28;100.00;99544.46;100615;1341;22882;-36
2022/11/10 00:48:11;;;;;;;30.40;14.60;;;;;;;6.25;100.00;99538.29;100515;1334;23118;-34
2022/11/10 00:50:36;;;;;;;27.00;12.00;;;;;;;6.24;100.00;99543.95;100516;1340;24372;-33
2022/11/10 00:53:02;;;;;;;32.30;14.90;;;;;;;6.23;100.00;99551.13;100500;1340;22764;-34
2022/11/10 00:55:28;;;;;;;22.00;10.80;;;;;;;6.24;100.00;99557.33;100565;1341;23232;-37
2022/11/10 00:57:53;;;;;;;42.60;16.30;;;;;;;6.24;100.00;99558.55;100578;1340;23093;-36
2022/11/10 01:00:19;;;;;;;35.50;16.60;;;;;;;6.25;100.00;99556.66;100577;1341;24362;-36
2022/11/10 01:02:44;;;;;;;28.70;14.20;;;;;;;6.22;100.00;99559.12;100596;1325;22894;-36
2022/11/10 01:05:10;;;;;;;37.10;15.80;;;;;;;6.21;100.00;99560.67;100539;1340;23363;-36
2022/11/10 01:07:35;;;;;;;32.10;13.50;;;;;;;6.19;100.00;99560.48;100625;1341;22906;-36
2022/11/10 01:10:01;;;;;;;33.90;16.50;;;;;;;6.23;100.00;99563.95;100608;1341;23067;-36
2022/11/10 01:12:28;;;;;;;41.10;15.60;;;;;;;6.25;100.00;99565.19;100588;1340;22514;-36
2022/11/10 01:14:54;;;;;;;44.00;20.20;;;;;;;6.26;100.00;99565.02;100516;1333;22546;-36
2022/11/10 01:17:20;;;;;;;37.00;14.30;;;;;;;6.32;100.00;99564.99;100540;1341;23102;-36
2022/11/10 01:19:46;;;;;;;33.40;12.90;;;;;;;6.30;100.00;99569.62;100486;1340;22751;-36
2022/11/10 01:22:12;;;;;;;28.90;14.30;;;;;;;6.30;100.00;99569.13;100551;1334;24414;-33
2022/11/10 01:24:38;;;;;;;27.10;10.30;;;;;;;6.33;100.00;99566.60;100606;1334;22751;-33
2022/11/10 01:27:03;;;;;;;38.20;17.90;;;;;;;6.40;100.00;99563.04;100599;1334;23077;-36
2022/11/10 01:29:29;;;;;;;40.90;19.60;;;;;;;6.36;100.00;99565.99;100513;1334;23243;-38
2022/11/10 01:31:54;;;;;;;38.90;15.60;;;;;;;6.38;100.00;99571.07;100552;1333;24678;-33
2022/11/10 01:34:20;;;;;;;33.50;16.90;;;;;;;6.38;100.00;99576.45;100605;1341;24488;-36
2022/11/10 01:36:46;;;;;;;33.50;16.30;;;;;;;6.40;100.00;99578.28;100581;1341;23094;-34
2022/11/10 01:39:13;;;;;;;32.20;15.70;;;;;;;6.43;100.00;99578.05;100600;1341;24511;-34
2022/11/10 01:41:39;;;;;;;39.50;16.60;;;;;;;6.46;100.00;99581.45;100596;1340;22765;-34
2022/11/10 01:44:11;;;;;;;38.20;17.00;;;;;;;6.51;100.00;99583.73;100579;1341;22876;-37
2022/11/10 01:46:36;;;;;;;38.80;17.40;;;;;;;6.50;100.00;99583.66;100629;1341;25397;-37
2022/11/10 01:49:02;;;;;;;35.40;16.80;;;;;;;6.56;100.00;99580.12;100485;1331;22900;-34
2022/11/10 01:51:29;;;;;;;28.60;13.00;;;;;;;6.60;100.00;99579.05;100484;1341;23392;-37
2022/11/10 01:53:57;;;;;;;40.50;18.30;;;;;;;6.60;100.00;99581.13;100513;1333;22745;-38
2022/11/10 01:56:23;;;;;;;28.00;12.70;;;;;;;6.65;100.00;99575.32;100569;1333;23129;-33
2022/11/10 01:58:53;;;;;;;43.20;18.40;;;;;;;6.67;100.00;99570.28;100543;1334;23102;-33
2022/11/10 02:01:19;;;;;;;30.40;13.60;;;;;;;6.67;100.00;99567.21;100653;1339;22900;-33
2022/11/10 02:03:48;;;;;;;38.80;16.40;;;;;;;6.70;100.00;99567.48;100389;1342;23011;-33
2022/11/10 02:06:14;;;;;;;35.50;14.70;;;;;;;6.73;100.00;99571.39;100614;1341;24488;-32
2022/11/10 02:08:40;;;;;;;28.00;15.10;;;;;;;6.73;100.00;99580.23;100504;1341;22739;-32
2022/11/10 02:11:06;;;;;;;40.90;15.70;;;;;;;6.80;100.00;99576.42;100479;1326;22921;-36
2022/11/10 02:13:31;;;;;;;41.00;17.30;;;;;;;6.88;100.00;99571.34;100476;1340;23236;-33
2022/11/10 02:15:57;;;;;;;34.50;16.40;;;;;;;6.80;100.00;99576.09;100523;1341;22747;-36
2022/11/10 02:18:22;;;;;;;37.30;13.20;;;;;;;6.83;100.00;99578.09;100641;1333;23051;-36
2022/11/10 02:20:48;;;;;;;29.40;13.00;;;;;;;6.85;100.00;99573.80;100501;1334;23110;-32
2022/11/10 02:23:18;;;;;;;30.70;14.70;;;;;;;6.85;100.00;99572.21;100550;1339;22902;-33
2022/11/10 02:25:43;;;;;;;36.20;15.40;;;;;;;6.87;100.00;99578.21;100596;1341;24499;-32
2022/11/10 02:28:09;;;;;;;28.30;11.80;;;;;;;6.99;100.00;99586.48;100524;1341;22721;-35
2022/11/10 02:30:34;;;;;;;30.90;15.10;;;;;;;6.93;100.00;99593.23;100483;1341;24302;-32
2022/11/10 02:33:02;;;;;;;39.00;17.50;;;;;;;6.92;100.00;99589.46;100469;1341;25311;-36
2022/11/10 02:35:28;;;;;;;34.70;14.00;;;;;;;6.86;100.00;99587.89;100549;1341;22751;-32
2022/11/10 02:37:53;;;;;;;44.80;17.50;;;;;;;6.86;100.00;99590.02;100611;1341;22826;-36
2022/11/10 02:40:19;;;;;;;28.20;15.30;;;;;;;6.87;100.00;99590.87;100496;1333;24459;-36
2022/11/10 02:42:44;;;;;;;28.00;14.50;;;;;;;6.85;100.00;99596.43;100566;1341;22895;-32
2022/11/10 02:45:10;;;;;;;34.90;16.80;;;;;;;6.85;100.00;99598.33;100577;1341;24366;-36
2022/11/10 02:47:35;;;;;;;32.00;14.90;;;;;;;6.84;100.00;99601.54;100567;1334;22894;-32
2022/11/10 02:50:01;;;;;;;35.00;14.40;;;;;;;6.83;100.00;99607.52;100581;1330;22892;-40
2022/11/10 02:52:27;;;;;;;30.90;15.70;;;;;;;6.82;100.00;99613.48;100551;1333;22901;-32
2022/11/10 02:54:52;;;;;;;36.80;16.70;;;;;;;6.82;100.00;99618.09;100491;1323;22751;-32
2022/11/10 02:57:18;;;;;;;44.10;18.30;;;;;;;6.84;100.00;99617.32;100543;1341;23115;-33
2022/11/10 02:59:44;;;;;;;27.70;12.90;;;;;;;6.81;100.00;99619.30;100540;1341;22652;-36
2022/11/10 03:02:09;;;;;;;34.70;15.30;;;;;;;6.83;100.00;99617.96;100578;1341;23362;-35
2022/11/10 03:04:35;;;;;;;30.40;14.80;;;;;;;6.83;100.00;99628.23;100610;1341;24813;-37
2022/11/10 03:07:00;;;;;;;30.90;16.10;;;;;;;6.84;100.00;99627.91;100576;1333;23151;-32
2022/11/10 03:09:26;;;;;;;42.10;17.40;;;;;;;6.86;100.00;99630.34;100532;1341;23091;-35
2022/11/10 03:11:52;;;;;;;39.00;15.10;;;;;;;6.86;100.00;99631.55;100519;1341;22859;-35
2022/11/10 03:14:17;;;;;;;29.60;15.20;;;;;;;6.85;100.00;99633.24;100598;1340;22523;-33
2022/11/10 03:16:43;;;;;;;25.60;12.10;;;;;;;6.82;100.00;99648.53;100527;1340;24424;-33
2022/11/10 03:19:09;;;;;;;33.90;14.80;;;;;;;6.83;100.00;99656.10;100578;1340;22774;-33
2022/11/10 03:21:34;;;;;;;28.10;12.90;;;;;;;6.85;100.00;99661.77;100576;1341;24481;-36
2022/11/10 03:24:00;;;;;;;42.60;18.70;;;;;;;6.85;100.00;99665.25;100599;1335;24559;-33
2022/11/10 03:26:25;;;;;;;41.10;18.40;;;;;;;6.83;100.00;99667.85;100459;1340;23232;-33
2022/11/10 03:28:51;;;;;;;35.50;13.50;;;;;;;6.82;100.00;99670.11;100551;1334;24450;-33
2022/11/10 03:31:17;;;;;;;32.10;14.70;;;;;;;6.78;100.00;99668.32;100637;1340;23362;-33
2022/11/10 03:33:42;;;;;;;32.00;15.30;;;;;;;6.77;100.00;99674.35;100615;1334;22888;-33
2022/11/10 03:36:08;;;;;;;32.50;14.20;;;;;;;6.79;100.00;99678.41;100613;1341;23102;-36
2022/11/10 03:38:33;;;;;;;28.60;14.70;;;;;;;6.77;100.00;99682.49;100546;1341;23112;-34
2022/11/10 03:40:59;;;;;;;31.30;14.30;;;;;;;6.77;100.00;99682.66;100505;1334;23276;-36
2022/11/10 03:43:25;;;;;;;22.40;11.70;;;;;;;6.75;100.00;99684.85;100535;1333;23235;-34
2022/11/10 03:45:50;;;;;;;30.00;13.60;;;;;;;6.73;100.00;99684.69;100571;1340;24388;-37
2022/11/10 03:48:16;;;;;;;31.00;16.40;;;;;;;6.77;100.00;99692.84;100495;1334;22519;-34
2022/11/10 03:50:41;;;;;;;37.80;18.50;;;;;;;6.74;100.00;99694.34;100495;1325;24354;-37
2022/11/10 03:53:07;;;;;;;28.00;14.00;;;;;;;6.72;100.00;99704.21;100558;1340;22878;-33
2022/11/10 03:55:32;;;;;;;25.90;11.30;;;;;;;6.69;100.00;99715.57;100480;1333;22888;-37
2022/11/10 03:58:02;;;;;;;46.50;20.60;;;;;;;6.68;100.00;99716.71;100519;1341;24386;-37
2022/11/10 04:00:28;;;;;;;29.70;12.80;;;;;;;6.68;100.00;99720.38;100639;1337;25394;-37
2022/11/10 04:02:54;;;;;;;36.80;15.80;;;;;;;6.61;100.00;99730.30;100427;1337;24370;-34
2022/11/10 04:10:23;;;;;;;41.30;18.70;;;;;;;6.64;100.00;99739.79;100612;1341;24383;-37
2022/11/10 04:17:49;;;;;;;40.10;15.60;;;;;;;6.70;100.00;99746.41;100538;1340;23250;-36
2022/11/10 04:20:14;;;;;;;43.00;17.40;;;;;;;6.61;100.00;99750.59;100520;1341;23145;-37
2022/11/10 04:25:09;;;;;;;14.50;7.60;;;;;;;6.66;100.00;99770.21;100607;1333;23090;-34
2022/11/10 04:27:34;;;;;;;42.40;18.30;;;;;;;6.71;100.00;99782.31;100521;1335;22578;-37
2022/11/10 04:30:00;;;;;;;45.80;19.10;;;;;;;6.71;100.00;99790.23;100511;1333;23106;-34
2022/11/10 04:32:26;;;;;;;40.70;17.60;;;;;;;6.71;100.00;99799.50;100521;1340;22747;-37
2022/11/10 04:34:51;;;;;;;61.70;23.30;;;;;;;6.66;100.00;99804.52;100556;1340;22740;-38
2022/11/10 04:37:17;;;;;;;39.50;16.80;;;;;;;6.68;100.00;99809.60;100538;1340;22524;-34
2022/11/10 04:39:43;;;;;;;29.00;15.20;;;;;;;6.66;100.00;99818.73;100578;1340;22962;-34
2022/11/10 04:42:10;;;;;;;41.90;15.90;;;;;;;6.67;100.00;99817.73;100587;1333;23105;-36
2022/11/10 04:44:35;;;;;;;33.10;14.30;;;;;;;6.70;100.00;99817.24;100492;1341;24506;-36
2022/11/10 04:47:01;;;;;;;33.00;15.90;;;;;;;6.72;100.00;99823.49;100504;1332;24449;-36
2022/11/10 04:49:26;;;;;;;44.90;18.40;;;;;;;6.77;100.00;99826.43;100558;1332;24766;-36
2022/11/10 04:51:52;;;;;;;35.40;13.80;;;;;;;6.79;100.00;99829.48;100505;1340;23225;-36
2022/11/10 04:54:18;;;;;;;35.20;14.80;;;;;;;6.78;100.00;99834.90;100486;1342;22890;-33
2022/11/10 04:56:43;;;;;;;47.30;19.10;;;;;;;6.82;100.00;99839.45;100527;1341;22930;-35
2022/11/10 04:59:09;;;;;;;35.40;16.50;;;;;;;6.90;100.00;99842.37;100477;1341;22869;-32
2022/11/10 05:01:34;;;;;;;32.50;15.80;;;;;;;6.91;100.00;99844.77;100574;1333;23226;-36
2022/11/10 05:04:00;;;;;;;51.90;20.30;;;;;;;6.91;100.00;99851.36;100515;1333;23252;-33
2022/11/10 05:06:26;;;;;;;45.00;18.80;;;;;;;6.94;100.00;99855.97;100535;1328;23116;-34
2022/11/10 05:08:52;;;;;;;38.90;15.90;;;;;;;7.02;100.00;99856.97;100602;1334;22972;-35
2022/11/10 05:11:17;;;;;;;42.70;19.50;;;;;;;6.96;100.00;99851.74;100670;1341;23276;-33
2022/11/10 05:13:43;;;;;;;40.70;17.70;;;;;;;7.04;100.00;99860.84;100523;1340;22889;-37
2022/11/10 05:16:09;;;;;;;;;;;;;;;7.03;100.00;99870.06;100622;1341;23210;-34
2022/11/10 05:18:34;;;;;;;39.50;17.10;;;;;;;7.06;100.00;99873.10;100570;1333;24420;-34
2022/11/10 05:21:00;;;;;;;44.40;18.50;;;;;;;7.11;100.00;99874.23;100540;1340;22891;-36
2022/11/10 05:25:54;;;;;;;46.40;18.90;;;;;;;7.18;100.00;99885.92;100660;1333;23509;-37
2022/11/10 05:28:20;;;;;;;43.60;20.20;;;;;;;7.06;100.00;99894.67;100516;1330;24441;-34
2022/11/10 05:30:46;;;;;;;50.30;17.80;;;;;;;7.05;100.00;99901.01;100596;1341;23115;-34
2022/11/10 05:33:11;;;;;;;43.90;17.90;;;;;;;7.23;100.00;99899.43;100558;1334;24389;-34
2022/11/10 05:35:37;;;;;;;50.10;19.50;;;;;;;7.24;100.00;99903.77;100519;1333;22888;-34
2022/11/10 05:38:03;;;;;;;42.10;18.30;;;;;;;7.23;100.00;99905.41;100451;1341;25281;-35
2022/11/10 05:40:28;;;;;;;55.30;21.40;;;;;;;7.24;100.00;99908.55;100579;1333;24385;-34
2022/11/10 05:42:55;;;;;;;49.20;18.70;;;;;;;7.22;100.00;99919.67;100596;1324;22907;-34
2022/11/10 05:45:22;;;;;;;45.70;18.70;;;;;;;7.20;100.00;99937.09;100553;1342;23101;-34
2022/11/10 05:47:48;;;;;;;38.60;14.20;;;;;;;7.21;100.00;99942.88;100575;1334;24348;-38
2022/11/10 05:50:15;;;;;;;42.70;17.90;;;;;;;7.15;100.00;99950.14;100365;1341;22780;-35
2022/11/10 05:52:43;;;;;;;40.10;15.70;;;;;;;7.19;100.00;99956.09;100545;1341;24382;-38
2022/11/10 05:55:09;;;;;;;69.50;25.40;;;;;;;7.25;100.00;99958.13;100587;1340;23112;-37
2022/11/10 05:57:35;;;;;;;50.60;17.60;;;;;;;7.47;100.00;99961.33;100537;1341;22841;-34
2022/11/10 06:00:01;;;;;;;55.50;20.60;;;;;;;7.33;100.00;99960.75;100540;1339;23217;-37
2022/11/10 06:02:26;;;;;;;51.20;21.20;;;;;;;7.33;100.00;99960.17;100539;1334;22752;-37
2022/11/10 06:04:52;;;;;;;44.60;17.00;;;;;;;7.46;100.00;99965.34;100485;1333;23109;-34
2022/11/10 06:07:17;;;;;;;38.00;14.50;;;;;;;7.46;100.00;99967.57;100520;1338;22516;-34
2022/11/10 06:09:44;;;;;;;39.30;15.20;;;;;;;7.36;100.00;99976.73;100395;1342;24310;-39
2022/11/10 06:12:10;;;;;;;24.50;9.90;;;;;;;7.46;100.00;99980.46;100570;1341;24441;-33
2022/11/10 06:14:35;;;;;;;39.70;19.20;;;;;;;7.42;100.00;99989.91;100492;1341;22617;-34
2022/11/10 06:17:01;;;;;;;46.90;15.40;;;;;;;7.52;100.00;99995.75;100607;1341;23112;-37
2022/11/10 06:19:27;;;;;;;49.10;19.20;;;;;;;7.52;100.00;99995.61;100541;1341;25348;-37
2022/11/10 06:21:52;;;;;;;58.00;22.10;;;;;;;7.54;100.00;99996.66;100520;1333;22790;-34
2022/11/10 06:24:18;;;;;;;46.60;19.20;;;;;;;7.58;100.00;99997.99;100345;1342;23052;-37
2022/11/10 06:26:43;;;;;;;57.10;21.80;;;;;;;7.51;100.00;100003.34;100530;1333;22726;-34
2022/11/10 06:29:09;;;;;;;42.30;17.80;;;;;;;7.57;100.00;100005.39;100516;1341;23253;-38
2022/11/10 06:31:34;;;;;;;40.80;14.80;;;;;;;7.53;100.00;100010.49;100588;1333;24828;-36
2022/11/10 06:34:00;;;;;;;39.70;17.00;;;;;;;7.64;100.00;100007.69;100529;1341;23208;-37
2022/11/10 06:36:26;;;;;;;36.50;15.10;;;;;;;7.61;100.00;100014.97;100582;1335;22874;-35
2022/11/10 06:38:51;;;;;;;42.90;15.70;;;;;;;7.64;100.00;100018.58;100495;1333;24360;-38
2022/11/10 06:41:17;;;;;;;36.60;18.20;;;;;;;7.67;100.00;100021.42;100505;1336;22747;-35
2022/11/10 06:43:42;;;;;;;29.20;12.30;;;;;;;7.65;100.00;100026.96;100590;1334;22747;-37
2022/11/10 06:46:08;;;;;;;25.20;13.20;;;;;;;7.66;100.00;100030.81;100623;1333;22868;-34
2022/11/10 06:48:33;;;;;;;45.40;17.80;;;;;;;7.80;100.00;100029.52;100584;1341;23273;-34
2022/11/10 06:51:00;;;;;;;51.60;18.70;;;;;;;7.79;100.00;100031.22;100560;1341;22789;-37
2022/11/10 06:53:25;;;;;;;41.70;15.50;;;;;;;7.76;100.00;100036.92;100449;1340;22753;-34
2022/11/10 06:55:51;;;;;;;45.50;18.60;;;;;;;7.84;100.00;100038.05;100513;1341;23230;-34
2022/11/10 06:58:17;;;;;;;32.10;12.40;;;;;;;7.87;100.00;100038.16;100624;1334;22764;-35
2022/11/10 07:00:42;;;;;;;26.10;7.10;;;;;;;7.84;100.00;100046.35;100599;1341;23092;-37
2022/11/10 07:03:11;;;;;;;23.10;9.00;;;;;;;7.88;100.00;100047.33;100550;1334;26609;-33
2022/11/10 07:05:37;;;;;;;30.70;13.70;;;;;;;7.90;100.00;100049.96;100606;1340;23236;-34
2022/11/10 07:08:03;;;;;;;23.90;12.10;;;;;;;7.94;100.00;100051.16;100532;1340;24940;-35
2022/11/10 07:10:29;;;;;;;32.90;12.20;;;;;;;7.95;100.00;100051.23;100525;1341;23116;-36
2022/11/10 07:12:56;;;;;;;35.00;14.00;;;;;;;7.92;100.00;100049.21;100602;1341;25509;-36
2022/11/10 07:15:22;;;;;;;40.50;17.30;;;;;;;7.95;100.00;100055.70;100625;1341;22760;-34
2022/11/10 07:17:47;;;;;;;35.30;15.60;;;;;;;7.96;100.00;100051.66;100590;1342;24291;-34
2022/11/10 07:20:13;;;;;;;33.70;14.80;;;;;;;8.01;100.00;100056.76;100590;1333;22856;-34
2022/11/10 07:22:39;;;;;;;33.60;13.90;;;;;;;7.99;100.00;100054.98;100543;1333;22889;-36
2022/11/10 07:25:05;;;;;;;33.80;15.10;;;;;;;7.99;100.00;100057.48;100490;1341;23511;-36
2022/11/10 07:27:31;;;;;;;27.20;10.70;;;;;;;8.02;100.00;100058.79;100575;1341;23102;-37
2022/11/10 07:29:56;;;;;;;18.80;8.20;;;;;;;7.98;100.00;100063.64;100579;1341;22567;-34
2022/11/10 07:32:22;;;;;;;33.50;14.30;;;;;;;7.99;100.00;100068.52;100565;1341;24410;-36
2022/11/10 07:34:47;;;;;;;47.20;19.60;;;;;;;8.00;100.00;100078.98;100508;1337;24386;-36
2022/11/10 07:37:13;;;;;;;19.70;8.30;;;;;;;8.07;100.00;100078.70;100559;1340;23231;-35
2022/11/10 07:39:39;;;;;;;38.10;14.70;;;;;;;8.05;100.00;100081.73;100535;1337;23214;-34
2022/11/10 07:42:04;;;;;;;25.00;12.60;;;;;;;8.01;100.00;100086.11;100512;1333;24407;-34
2022/11/10 07:44:31;;;;;;;35.10;15.10;;;;;;;8.05;100.00;100096.89;100603;1333;22509;-34
2022/11/10 07:46:58;;;;;;;29.10;13.20;;;;;;;8.13;100.00;100101.98;100504;1341;24296;-34
2022/11/10 07:49:24;;;;;;;28.90;13.90;;;;;;;8.14;100.00;100100.46;100578;1341;22774;-38
2022/11/10 07:51:49;;;;;;;25.80;12.00;;;;;;;8.22;100.00;100099.77;100543;1341;22757;-37
2022/11/10 07:54:15;;;;;;;34.40;14.40;;;;;;;8.23;100.00;100096.80;100582;1333;22983;-33
2022/11/10 07:56:41;;;;;;;111.10;38.30;;;;;;;8.29;100.00;100098.52;100645;1340;22569;-34
2022/11/10 07:59:07;;;;;;;43.00;22.40;;;;;;;8.38;100.00;100093.40;100557;1334;24773;-33
2022/11/10 08:01:33;;;;;;;29.20;13.10;;;;;;;8.45;100.00;100095.52;100560;1341;25310;-38
2022/11/10 08:03:59;;;;;;;18.90;8.60;;;;;;;8.47;100.00;100100.48;100623;1331;25336;-34
2022/11/10 08:06:24;;;;;;;32.00;14.10;;;;;;;8.57;100.00;100102.83;100546;1341;22770;-33
2022/11/10 08:08:50;;;;;;;17.50;9.50;;;;;;;8.62;100.00;100098.89;100480;1341;23106;-33
2022/11/10 08:11:16;;;;;;;12.20;6.80;;;;;;;8.68;100.00;100093.50;100546;1333;24364;-36
2022/11/10 08:13:41;;;;;;;21.90;11.20;;;;;;;8.74;100.00;100083.77;100611;1341;24295;-35
2022/11/10 08:16:07;;;;;;;13.40;3.20;;;;;;;8.77;100.00;100077.89;100558;1340;23128;-36
2022/11/10 08:18:33;;;;;;;16.80;8.80;;;;;;;8.97;100.00;100069.80;100541;1341;22758;-41
2022/11/10 08:21:00;;;;;;;13.40;6.90;;;;;;;8.97;100.00;100067.32;100578;1334;22891;-35
2022/11/10 08:23:27;;;;;;;11.50;7.10;;;;;;;9.05;100.00;100059.11;100622;1326;23304;-34
2022/11/10 08:25:53;;;;;;;16.10;10.00;;;;;;;9.14;100.00;100055.64;100480;1341;24375;-36
2022/11/10 08:28:19;;;;;;;11.00;4.80;;;;;;;9.13;100.00;100050.95;100592;1341;22742;-34
2022/11/10 08:30:45;;;;;;;14.30;7.00;;;;;;;9.23;100.00;100055.73;100521;1341;22765;-36
2022/11/10 08:33:12;;;;;;;8.10;5.00;;;;;;;9.17;100.00;100055.10;100594;1341;23314;-37
2022/11/10 08:35:40;;;;;;;13.60;7.40;;;;;;;9.17;100.00;100060.16;100555;1334;24382;-34
2022/11/10 08:38:09;;;;;;;15.00;5.40;;;;;;;9.28;100.00;100062.11;100565;1340;23093;-34
2022/11/10 08:40:34;;;;;;;17.00;8.60;;;;;;;9.33;100.00;100067.23;100463;1341;24316;-33
2022/11/10 08:43:01;;;;;;;10.40;6.20;;;;;;;9.40;100.00;100068.23;100521;1341;22538;-34
2022/11/10 08:45:26;;;;;;;14.00;6.80;;;;;;;9.50;100.00;100058.92;100556;1340;22633;-36
2022/11/10 08:47:58;;;;;;;13.80;6.90;;;;;;;9.53;100.00;100059.61;100613;1341;23024;-34
2022/11/10 08:50:24;;;;;;;14.20;7.60;;;;;;;9.50;100.00;100068.91;100546;1327;22754;-37
2022/11/10 08:52:49;;;;;;;22.30;9.50;;;;;;;9.55;100.00;100072.30;100506;1341;27029;-34
2022/11/10 08:55:15;;;;;;;16.50;7.80;;;;;;;9.52;100.00;100082.80;100618;1341;22763;-36
2022/11/10 08:57:40;;;;;;;13.90;6.10;;;;;;;9.65;100.00;100090.98;100516;1341;22816;-34
2022/11/10 09:00:07;;;;;;;15.00;6.10;;;;;;;9.78;100.00;100079.36;100455;1333;24385;-36
2022/11/10 09:02:32;;;;;;;11.90;6.80;;;;;;;9.78;100.00;100080.42;100474;1340;22725;-36
2022/11/10 09:04:58;;;;;;;6.20;3.60;;;;;;;9.84;100.00;100079.94;100574;1334;23139;-38
2022/11/10 09:07:23;;;;;;;5.30;3.00;;;;;;;9.90;100.00;100085.27;100509;1341;22512;-34
2022/11/10 09:09:49;;;;;;;9.40;4.40;;;;;;;9.98;100.00;100081.46;100395;1341;23091;-36
2022/11/10 09:12:15;;;;;;;13.40;7.40;;;;;;;10.02;100.00;100084.69;100495;1341;23118;-35
2022/11/10 09:14:41;;;;;;;16.60;8.10;;;;;;;10.05;100.00;100083.57;100609;1327;22501;-34
2022/11/10 09:17:07;;;;;;;9.40;4.10;;;;;;;10.12;100.00;100087.83;100569;1341;23090;-37
2022/11/10 09:19:32;;;;;;;15.10;6.20;;;;;;;10.10;100.00;100087.27;100570;1340;23055;-38
2022/11/10 09:21:58;;;;;;;8.20;5.20;;;;;;;10.04;100.00;100094.23;100575;1325;22761;-35
2022/11/10 09:24:24;;;;;;;17.50;6.20;;;;;;;10.14;100.00;100104.02;100564;1333;25396;-33
2022/11/10 09:26:50;;;;;;;7.60;4.50;;;;;;;10.16;100.00;100101.16;100621;1341;22520;-32
2022/11/10 09:29:16;;;;;;;6.30;3.30;;;;;;;10.11;100.00;100108.88;100607;1340;24498;-32
2022/11/10 09:31:43;;;;;;;7.90;5.50;;;;;;;10.11;100.00;100111.85;100511;1341;24386;-34
2022/11/10 09:34:09;;;;;;;6.00;3.90;;;;;;;10.06;100.00;100116.52;100508;1341;22890;-43
2022/11/10 09:36:35;;;;;;;11.70;5.50;;;;;;;10.21;100.00;100117.48;100557;1341;23191;-34
2022/11/10 09:39:00;;;;;;;10.30;4.60;;;;;;;10.08;100.00;100116.33;100613;1334;22768;-37
2022/11/10 09:41:28;;;;;;;8.00;3.30;;;;;;;10.11;100.00;100118.20;100487;1342;22880;-33
2022/11/10 09:43:57;;;;;;;4.50;3.10;;;;;;;10.09;100.00;100117.58;100468;1342;24303;-33
2022/11/10 09:46:27;;;;;;;9.00;3.70;;;;;;;10.05;100.00;100111.29;100565;1334;22517;-34
2022/11/10 09:48:55;;;;;;;6.10;3.60;;;;;;;10.01;100.00;100114.13;100616;1333;22749;-37
2022/11/10 09:51:22;;;;;;;8.80;5.30;;;;;;;10.07;100.00;100114.16;102736;1339;22517;-39
2022/11/10 09:53:51;;;;;;;7.00;3.30;;;;;;;9.95;100.00;100117.98;103662;1336;22508;-40
2022/11/10 09:56:21;;;;;;;16.10;5.20;;;;;;;10.02;100.00;100124.34;103583;1325;22523;-35
2022/11/10 09:58:47;;;;;;;17.20;6.20;;;;;;;10.18;100.00;100114.27;103453;1341;22526;-37
2022/11/10 10:01:37;;;;;;;17.80;6.50;;;;;;;10.33;100.00;100114.91;103062;1341;22520;-37
2022/11/10 10:04:10;;;;;;;17.10;5.80;;;;;;;10.64;100.00;100106.65;103287;1327;22513;-37
2022/11/10 10:06:38;;;;;;;;;;;;;;;10.64;100.00;100105.00;103765;1341;22888;-39
2022/11/10 10:09:13;;;;;;;6.00;5.00;;;;;;;10.80;100.00;100103.57;103709;1341;22197;-37
2022/11/10 10:11:42;;;;;;;8.30;4.70;;;;;;;11.04;100.00;100101.58;103961;1333;22389;-38
2022/11/10 10:14:23;;;;;;;5.30;4.00;;;;;;;11.02;100.00;100102.23;103784;1341;22226;-35
2022/11/10 10:16:58;;;;;;;9.60;4.50;;;;;;;11.38;100.00;100099.52;103897;1341;22560;-35
2022/11/10 10:19:32;;;;;;;5.10;3.90;;;;;;;11.79;100.00;100098.69;103808;1341;22590;-35
2022/11/10 10:22:01;;;;;;;;;;;;;;;12.00;100.00;100094.30;103108;1342;22505;-35
2022/11/10 10:24:29;;;;;;;4.10;2.20;;;;;;;12.23;100.00;100101.45;103918;1334;22532;-38
2022/11/10 10:26:56;;;;;;;7.20;3.90;;;;;;;12.47;99.76;100096.31;103849;1341;22508;-35
2022/11/10 10:29:24;;;;;;;6.50;3.20;;;;;;;12.57;99.83;100105.16;103778;1334;22214;-37
2022/11/10 10:31:51;;;;;;;3.60;2.80;;;;;;;12.83;96.01;100100.42;103904;1340;22247;-38
2022/11/10 10:34:20;;;;;;;12.20;3.80;;;;;;;12.66;95.42;100103.50;103952;1341;22138;-38
2022/11/10 10:36:46;;;;;;;8.40;2.50;;;;;;;12.39;97.58;100109.63;103912;1340;22516;-38
2022/11/10 10:39:14;;;;;;;2.80;1.90;;;;;;;12.38;96.77;100114.00;103541;1333;24504;-35
2022/11/10 10:41:40;;;;;;;5.20;2.70;;;;;;;12.50;95.67;100108.91;103799;1341;22936;-35
2022/11/10 10:44:12;;;;;;;5.40;3.10;;;;;;;12.56;96.15;100112.89;103817;1340;23140;-35
2022/11/10 10:46:45;;;;;;;5.50;3.20;;;;;;;12.98;94.24;100107.23;103703;1341;22140;-35
2022/11/10 10:49:17;;;;;;;5.20;2.60;;;;;;;13.03;92.63;100111.42;103930;1334;22918;-35
2022/11/10 10:51:43;;;;;;;5.60;2.80;;;;;;;12.98;93.18;100108.48;103989;1341;22306;-35
2022/11/10 10:54:22;;;;;;;6.10;2.20;;;;;;;12.93;92.70;100110.83;103886;1341;22593;-35
2022/11/10 10:56:48;;;;;;;3.50;2.00;;;;;;;13.02;93.36;100113.87;103938;1341;22489;-38
2022/11/10 10:59:18;;;;;;;3.00;1.70;;;;;;;13.30;91.30;100110.66;103994;1333;22180;-35
2022/11/10 11:01:44;;;;;;;7.10;2.60;;;;;;;13.37;90.79;100111.38;103859;1333;22509;-35
2022/11/10 11:04:16;;;;;;;2.30;0.80;;;;;;;13.07;90.24;100113.24;103535;1340;22786;-35
2022/11/10 11:06:42;;;;;;;4.00;2.90;;;;;;;13.04;90.17;100116.86;103888;1341;22591;-35
2022/11/10 11:09:13;;;;;;;4.20;1.80;;;;;;;13.09;89.95;100109.77;103871;1341;23292;-35
2022/11/10 11:11:42;;;;;;;4.30;1.70;;;;;;;12.96;89.74;100109.95;103797;1341;22297;-35
2022/11/10 11:14:15;;;;;;;4.80;1.50;;;;;;;13.06;88.51;100114.02;103862;1341;22069;-38
2022/11/10 11:16:46;;;;;;;4.90;1.50;;;;;;;12.72;91.04;100125.08;103868;1341;22513;-35
2022/11/10 11:19:12;;;;;;;4.70;1.70;;;;;;;12.75;91.40;100122.13;103710;1340;22506;-35
2022/11/10 11:21:42;;;;;;;5.80;1.70;;;;;;;12.72;89.92;100125.41;103782;1341;22517;-35
2022/11/10 11:24:13;;;;;;;1.50;0.90;;;;;;;12.52;91.60;100125.55;104011;1333;22160;-35
2022/11/10 11:26:51;;;;;;;1.70;1.10;;;;;;;12.57;92.86;100128.70;103959;1341;22039;-38